Time;durP1;ratioP1;P1;durP2;ratioP2;P2;SDS_P1;SDS_P2;PMS_P1;PMS_P2;Temp;Humidity;BMP_temperature;BMP_pressure;BME280_temperature;BME280_humidity;BME280_pressure;Samples;Min_cycle;Max_cycle;Signal;HPM_P1;HPM_P2
2024/01/22 00:00:29;;;;;;;6.82;1.75;;;;;;;-2.33;100.00;96745.34;1023756;28;20314;-68
2024/01/22 00:00:59;;;;;;;1.08;0.80;;;;;;;-2.37;100.00;96744.84;1027373;28;20442;-68
2024/01/22 00:01:30;;;;;;;0.00;0.00;;;;;;;-2.37;100.00;96750.00;1030903;28;20541;-70
2024/01/22 00:02:00;;;;;;;0.00;0.00;;;;;;;-2.40;100.00;96745.16;1027073;28;20067;-70
2024/01/22 00:02:31;;;;;;;0.05;0.05;;;;;;;-2.43;100.00;96750.63;1018918;29;20071;-68
2024/01/22 00:03:01;;;;;;;1.27;0.45;;;;;;;-2.46;100.00;96751.72;1020855;28;20038;-68
2024/01/22 00:03:32;;;;;;;1.15;1.02;;;;;;;-2.48;100.00;96750.25;1026932;28;20582;-68
2024/01/22 00:04:02;;;;;;;0.38;0.38;;;;;;;-2.47;100.00;96759.59;1026970;28;20030;-68
2024/01/22 00:04:33;;;;;;;0.00;0.00;;;;;;;-2.51;100.00;96745.47;1025630;28;20031;-68
2024/01/22 00:05:04;;;;;;;0.50;0.28;;;;;;;-2.45;100.00;96749.94;1030907;28;20038;-66
2024/01/22 00:05:34;;;;;;;0.00;0.00;;;;;;;-2.46;100.00;96746.59;1031105;28;20437;-70
2024/01/22 00:06:05;;;;;;;0.40;0.40;;;;;;;-2.47;100.00;96744.97;1027298;28;20137;-68
2024/01/22 00:06:39;;;;;;;0.00;0.00;;;;;;;-2.44;100.00;96746.44;1030293;28;20038;-68
2024/01/22 00:07:10;;;;;;;0.10;0.10;;;;;;;-2.46;100.00;96745.78;1031131;28;20229;-68
2024/01/22 00:07:40;;;;;;;0.00;0.00;;;;;;;-2.48;100.00;96742.56;1027814;28;20266;-68
2024/01/22 00:08:11;;;;;;;0.00;0.00;;;;;;;-2.53;100.00;96744.81;1032259;28;20030;-69
2024/01/22 00:08:41;;;;;;;0.38;0.20;;;;;;;-2.49;100.00;96751.22;1034729;28;20072;-68
2024/01/22 00:09:12;;;;;;;0.00;0.00;;;;;;;-2.50;100.00;96749.63;1031096;28;20019;-68
2024/01/22 00:09:42;;;;;;;0.25;0.25;;;;;;;-2.55;100.00;96746.72;1035028;28;20054;-68
2024/01/22 00:10:13;;;;;;;0.20;0.17;;;;;;;-2.61;100.00;96743.81;1026061;28;20402;-70
2024/01/22 00:10:43;;;;;;;0.05;0.05;;;;;;;-2.61;100.00;96746.38;1023102;29;20283;-68
2024/01/22 00:11:14;;;;;;;0.10;0.10;;;;;;;-2.63;100.00;96743.16;1023292;29;20408;-69
2024/01/22 00:11:44;;;;;;;0.40;0.40;;;;;;;-2.67;100.00;96736.72;1019088;29;20036;-68
2024/01/22 00:12:15;;;;;;;0.00;0.00;;;;;;;-2.61;100.00;96743.81;1024870;28;20078;-67
2024/01/22 00:12:45;;;;;;;0.00;0.00;;;;;;;-2.63;100.00;96745.72;1019440;29;20060;-69
2024/01/22 00:13:16;;;;;;;0.30;0.30;;;;;;;-2.64;100.00;96738.97;1018957;29;20035;-68
2024/01/22 00:13:46;;;;;;;0.60;0.60;;;;;;;-2.62;100.00;96747.34;1019230;29;20063;-69
2024/01/22 00:14:17;;;;;;;0.00;0.00;;;;;;;-2.63;100.00;96740.59;1015306;29;20119;-68
2024/01/22 00:14:47;;;;;;;0.05;0.05;;;;;;;-2.61;100.00;96743.81;1015839;29;20043;-66
2024/01/22 00:15:18;;;;;;;0.00;0.00;;;;;;;-2.63;100.00;96740.59;1019481;29;20038;-68
2024/01/22 00:15:48;;;;;;;0.05;0.05;;;;;;;-2.61;100.00;96738.69;1022997;29;20039;-69
2024/01/22 00:16:18;;;;;;;0.10;0.10;;;;;;;-2.62;100.00;96741.38;1021399;28;20027;-67
2024/01/22 00:16:49;;;;;;;0.00;0.00;;;;;;;-2.61;100.00;96736.09;1023038;28;20038;-68
2024/01/22 00:17:19;;;;;;;0.00;0.00;;;;;;;-2.64;100.00;96741.56;1020986;28;20423;-68
2024/01/22 00:17:50;;;;;;;0.10;0.10;;;;;;;-2.66;100.00;96740.88;1020212;28;20036;-69
2024/01/22 00:18:20;;;;;;;0.43;0.43;;;;;;;-2.68;100.00;96731.75;1023456;28;20044;-68
2024/01/22 00:18:51;;;;;;;0.10;0.10;;;;;;;-2.72;100.00;96738.94;1030924;28;20038;-68
2024/01/22 00:19:22;;;;;;;0.00;0.00;;;;;;;-2.73;100.00;96728.81;1019396;28;20086;-68
2024/01/22 00:19:52;;;;;;;2.17;0.98;;;;;;;-2.64;100.00;96733.03;1022751;29;20086;-68
2024/01/22 00:20:23;;;;;;;0.55;0.55;;;;;;;-2.65;100.00;96736.56;1022990;29;20859;-69
2024/01/22 00:20:53;;;;;;;0.00;0.00;;;;;;;-2.66;100.00;96740.09;1023614;28;20043;-68
2024/01/22 00:21:24;;;;;;;0.25;0.22;;;;;;;-2.64;100.00;96733.84;1034249;28;20100;-68
2024/01/22 00:21:54;;;;;;;0.10;0.10;;;;;;;-2.64;100.00;96725.34;1035473;28;20037;-69
2024/01/22 00:22:25;;;;;;;0.00;0.00;;;;;;;-2.58;100.00;96734.16;1023311;29;20031;-69
2024/01/22 00:22:55;;;;;;;0.05;0.05;;;;;;;-2.52;100.00;96736.13;1023109;29;20063;-69
2024/01/22 00:23:26;;;;;;;0.25;0.25;;;;;;;-2.49;100.00;96738.38;1022503;29;20082;-68
2024/01/22 00:23:56;;;;;;;0.47;0.35;;;;;;;-2.54;100.00;96730.34;1018972;29;20023;-68
2024/01/22 00:24:27;;;;;;;0.00;0.00;;;;;;;-2.53;100.00;96724.25;1022914;29;20046;-68
2024/01/22 00:24:57;;;;;;;0.00;0.00;;;;;;;-2.45;100.00;96731.97;1024423;28;20094;-69
2024/01/22 00:25:28;;;;;;;0.85;0.55;;;;;;;-2.37;100.00;96727.66;1026880;28;20321;-68
2024/01/22 00:25:58;;;;;;;0.00;0.00;;;;;;;-2.35;100.00;96727.50;1026957;28;20473;-68
2024/01/22 00:26:29;;;;;;;0.05;0.05;;;;;;;-2.33;100.00;96717.06;1027229;28;20042;-68
2024/01/22 00:26:59;;;;;;;0.63;0.63;;;;;;;-2.29;100.00;96729.44;1019022;29;20099;-68
2024/01/22 00:27:29;;;;;;;0.28;0.13;;;;;;;-2.27;100.00;96727.53;1015442;29;20068;-68
2024/01/22 00:28:00;;;;;;;0.00;0.00;;;;;;;-2.24;100.00;96724.66;1018947;29;20495;-68
2024/01/22 00:28:30;;;;;;;0.00;0.00;;;;;;;-2.26;100.00;96729.13;1018213;29;20598;-69
2024/01/22 00:29:01;;;;;;;0.00;0.00;;;;;;;-2.20;100.00;96725.94;1015417;29;20032;-68
2024/01/22 00:29:31;;;;;;;0.20;0.20;;;;;;;-2.18;100.00;96718.06;1022923;29;20086;-68
2024/01/22 00:30:02;;;;;;;0.35;0.35;;;;;;;-2.15;100.00;96723.72;1022486;28;20036;-68
2024/01/22 00:30:32;;;;;;;0.08;0.08;;;;;;;-2.12;100.00;96725.13;1023266;28;20043;-70
2024/01/22 00:31:03;;;;;;;0.00;0.00;;;;;;;-2.11;100.00;96723.38;1022643;29;20042;-69
2024/01/22 00:31:33;;;;;;;1.45;0.40;;;;;;;-2.03;100.00;96721.63;1023230;29;20507;-68
2024/01/22 00:32:04;;;;;;;0.00;0.00;;;;;;;-2.03;100.00;96715.69;1016105;29;20111;-69
2024/01/22 00:32:35;;;;;;;1.05;0.40;;;;;;;-2.07;100.00;96715.19;1019281;28;20487;-69
2024/01/22 00:33:06;;;;;;;0.00;0.00;;;;;;;-2.01;100.00;96722.28;1027548;28;20277;-69
2024/01/22 00:33:36;;;;;;;0.03;0.03;;;;;;;-2.08;100.00;96705.06;1026905;28;20502;-69
2024/01/22 00:34:07;;;;;;;0.00;0.00;;;;;;;-2.06;100.00;96718.56;1030980;28;20046;-68
2024/01/22 00:34:37;;;;;;;1.77;1.20;;;;;;;-2.13;100.00;96715.81;1027219;28;20491;-69
2024/01/22 00:35:08;;;;;;;4.43;0.50;;;;;;;-2.15;100.00;96703.13;1022934;28;20031;-67
2024/01/22 00:35:38;;;;;;;0.00;0.00;;;;;;;-2.07;100.00;96714.41;1023219;29;20034;-68
2024/01/22 00:36:13;;;;;;;0.00;0.00;;;;;;;-2.17;100.00;96704.25;1022869;28;20542;-68
2024/01/22 00:36:44;;;;;;;0.00;0.00;;;;;;;-2.14;100.00;96711.66;1026975;28;20086;-67
2024/01/22 00:37:14;;;;;;;0.15;0.15;;;;;;;-2.12;100.00;96712.28;1020201;28;20275;-68
2024/01/22 00:37:45;;;;;;;0.00;0.00;;;;;;;-2.08;100.00;96703.28;1022850;29;20286;-70
2024/01/22 00:38:15;;;;;;;0.10;0.10;;;;;;;-2.02;100.00;96702.66;1022648;29;20066;-69
2024/01/22 00:38:45;;;;;;;0.10;0.10;;;;;;;-2.01;100.00;96704.28;1022766;28;20039;-68
2024/01/22 00:39:16;;;;;;;0.00;0.00;;;;;;;-1.96;100.00;96701.22;1019150;29;20527;-69
2024/01/22 00:39:51;;;;;;;0.00;0.00;;;;;;;-1.98;100.00;96705.69;1019450;28;20435;-68
2024/01/22 00:40:21;;;;;;;0.00;0.00;;;;;;;-1.93;100.00;96709.41;1022785;29;20531;-68
2024/01/22 00:40:52;;;;;;;0.00;0.00;;;;;;;-1.92;100.00;96707.63;1020313;28;20299;-68
2024/01/22 00:41:22;;;;;;;0.00;0.00;;;;;;;-1.90;100.00;96710.88;1023870;28;20032;-68
2024/01/22 00:41:53;;;;;;;4.38;0.35;;;;;;;-1.87;100.00;96712.31;1027697;28;20510;-69
2024/01/22 00:42:23;;;;;;;0.10;0.10;;;;;;;-1.93;100.00;96706.03;1027859;28;20031;-71
2024/01/22 00:42:54;;;;;;;0.00;0.00;;;;;;;-1.91;100.00;96709.28;1025370;28;20422;-68
2024/01/22 00:43:24;;;;;;;0.00;0.00;;;;;;;-1.95;100.00;96707.97;1019123;29;20032;-68
2024/01/22 00:43:55;;;;;;;0.15;0.15;;;;;;;-2.03;100.00;96710.53;1015357;29;20031;-70
2024/01/22 00:44:25;;;;;;;0.00;0.00;;;;;;;-2.09;100.00;96701.69;1019021;29;20491;-69
2024/01/22 00:44:56;;;;;;;0.00;0.00;;;;;;;-1.99;100.00;96711.81;1022853;29;20078;-68
2024/01/22 00:45:26;;;;;;;0.47;0.30;;;;;;;-2.02;100.00;96709.56;1017996;29;20027;-68
2024/01/22 00:45:57;;;;;;;0.15;0.15;;;;;;;-2.22;100.00;96689.28;1015185;29;20079;-68
2024/01/22 00:46:27;;;;;;;0.00;0.00;;;;;;;-2.07;100.00;96709.25;1022460;29;20112;-67
2024/01/22 00:46:58;;;;;;;0.22;0.22;;;;;;;-2.01;100.00;96708.59;1027039;28;20050;-69
2024/01/22 00:47:28;;;;;;;0.08;0.08;;;;;;;-2.01;100.00;96711.16;1022760;28;20023;-68
2024/01/22 00:47:59;;;;;;;0.90;0.40;;;;;;;-2.06;100.00;96713.41;1023248;28;20035;-69
2024/01/22 00:48:29;;;;;;;0.00;0.00;;;;;;;-2.14;100.00;96703.94;1026323;28;20074;-69
2024/01/22 00:48:59;;;;;;;0.00;0.00;;;;;;;-2.11;100.00;96713.91;1018806;29;20476;-68
2024/01/22 00:49:30;;;;;;;0.00;0.00;;;;;;;-2.17;100.00;96715.34;1014956;29;20067;-68
2024/01/22 00:50:00;;;;;;;0.25;0.25;;;;;;;-2.22;100.00;96717.56;1015147;29;20031;-68
2024/01/22 00:50:31;;;;;;;1.15;0.55;;;;;;;-2.27;100.00;96709.53;1016667;29;20032;-70
2024/01/22 00:51:01;;;;;;;0.00;0.00;;;;;;;-2.24;100.00;96713.56;1019327;28;20483;-68
2024/01/22 00:51:33;;;;;;;0.00;0.00;;;;;;;-2.27;100.00;96716.44;1027078;28;20018;-69
2024/01/22 00:52:04;;;;;;;0.35;0.35;;;;;;;-2.28;100.00;96715.66;1023157;29;20126;-69
2024/01/22 00:52:34;;;;;;;0.10;0.10;;;;;;;-2.31;100.00;96713.38;1023224;28;20267;-68
2024/01/22 00:53:05;;;;;;;1.58;0.43;;;;;;;-2.35;100.00;96711.28;1023184;28;20027;-69
2024/01/22 00:53:35;;;;;;;0.20;0.20;;;;;;;-2.36;100.00;96715.63;1023667;28;20027;-68
2024/01/22 00:54:06;;;;;;;0.28;0.10;;;;;;;-2.39;100.00;96708.22;1030891;28;20474;-68
2024/01/22 00:54:36;;;;;;;0.10;0.10;;;;;;;-2.38;100.00;96713.22;1022985;28;20082;-68
2024/01/22 00:55:07;;;;;;;0.88;0.47;;;;;;;-2.38;100.00;96708.06;1023057;28;20502;-68
2024/01/22 00:55:37;;;;;;;0.00;0.00;;;;;;;-2.35;100.00;96708.72;1024942;28;20058;-68
2024/01/22 00:56:08;;;;;;;0.20;0.20;;;;;;;-2.27;100.00;96706.16;1017256;28;20094;-65
2024/01/22 00:56:38;;;;;;;0.10;0.10;;;;;;;-2.27;100.00;96714.69;1027131;28;20026;-68
2024/01/22 00:57:09;;;;;;;0.00;0.00;;;;;;;-2.32;100.00;96716.91;1026804;28;20022;-69
2024/01/22 00:57:39;;;;;;;0.00;0.00;;;;;;;-2.34;100.00;96716.28;1027473;28;20479;-68
2024/01/22 00:58:10;;;;;;;0.00;0.00;;;;;;;-2.37;100.00;96711.44;1026457;28;20019;-69
2024/01/22 00:58:40;;;;;;;0.00;0.00;;;;;;;-2.36;100.00;96705.34;1026615;28;20011;-68
2024/01/22 00:59:11;;;;;;;0.00;0.00;;;;;;;-2.30;100.00;96711.63;1018920;29;20035;-69
2024/01/22 00:59:41;;;;;;;0.10;0.10;;;;;;;-2.30;100.00;96709.06;1014354;29;20588;-66
2024/01/22 01:00:12;;;;;;;0.03;0.03;;;;;;;-2.30;100.00;96712.41;1018040;28;20020;-68
2024/01/22 01:00:42;;;;;;;0.00;0.00;;;;;;;-2.30;100.00;96709.84;1023420;28;20076;-68
2024/01/22 01:01:13;;;;;;;0.00;0.00;;;;;;;-2.30;100.00;96706.47;1029233;28;20022;-68
2024/01/22 01:01:43;;;;;;;0.00;0.00;;;;;;;-2.33;100.00;96704.22;1031394;28;20034;-67
2024/01/22 01:02:14;;;;;;;0.32;0.32;;;;;;;-2.34;100.00;96708.56;1029137;28;20037;-68
2024/01/22 01:02:44;;;;;;;2.60;0.50;;;;;;;-2.39;100.00;96710.78;1031035;28;20022;-68
2024/01/22 01:03:15;;;;;;;0.00;0.00;;;;;;;-2.45;100.00;96706.28;1028696;28;20032;-68
2024/01/22 01:03:45;;;;;;;0.38;0.38;;;;;;;-2.44;100.00;96708.69;1018989;29;20031;-70
2024/01/22 01:04:15;;;;;;;0.00;0.00;;;;;;;-2.43;100.00;96714.63;1019014;29;20027;-69
2024/01/22 01:04:46;;;;;;;0.00;0.00;;;;;;;-2.47;100.00;96705.63;1020971;28;20900;-69
2024/01/22 01:05:16;;;;;;;0.77;0.75;;;;;;;-2.38;100.00;96702.94;1022970;28;20049;-68
2024/01/22 01:05:47;;;;;;;0.10;0.10;;;;;;;-2.37;100.00;96708.88;1030883;28;20022;-67
2024/01/22 01:06:17;;;;;;;0.00;0.00;;;;;;;-2.28;100.00;96702.81;1026781;28;20362;-69
2024/01/22 01:06:48;;;;;;;0.20;0.20;;;;;;;-2.33;100.00;96699.88;1026987;28;20034;-68
2024/01/22 01:07:18;;;;;;;0.00;0.00;;;;;;;-2.37;100.00;96701.16;1030949;28;20045;-68
2024/01/22 01:07:49;;;;;;;0.13;0.13;;;;;;;-2.40;100.00;96698.91;1026701;28;20018;-68
2024/01/22 01:08:19;;;;;;;0.10;0.10;;;;;;;-2.42;100.00;96698.25;1030388;28;20010;-69
2024/01/22 01:08:50;;;;;;;0.00;0.00;;;;;;;-2.41;100.00;96697.31;1030721;28;20037;-69
2024/01/22 01:09:20;;;;;;;0.00;0.00;;;;;;;-2.41;100.00;96698.09;1026687;28;20121;-67
2024/01/22 01:09:50;;;;;;;0.00;0.00;;;;;;;-2.46;100.00;96684.13;1025881;28;20391;-68
2024/01/22 01:10:21;;;;;;;0.25;0.25;;;;;;;-2.44;100.00;96695.84;1021880;28;20035;-68
2024/01/22 01:10:51;;;;;;;0.65;0.65;;;;;;;-2.42;100.00;96695.69;1022884;28;20585;-69
2024/01/22 01:11:22;;;;;;;0.10;0.10;;;;;;;-2.43;100.00;96683.81;1026912;28;20050;-68
2024/01/22 01:11:52;;;;;;;0.00;0.00;;;;;;;-2.44;100.00;96687.34;1022761;28;20586;-68
2024/01/22 01:12:23;;;;;;;0.43;0.43;;;;;;;-2.42;100.00;96680.25;1026133;28;20140;-69
2024/01/22 01:12:53;;;;;;;0.08;0.08;;;;;;;-2.40;100.00;96684.28;1026848;28;20422;-69
2024/01/22 01:13:24;;;;;;;0.00;0.00;;;;;;;-2.38;100.00;96681.56;1026663;28;20037;-67
2024/01/22 01:13:54;;;;;;;0.75;0.75;;;;;;;-2.34;100.00;96682.88;1030460;28;20038;-68
2024/01/22 01:14:25;;;;;;;0.20;0.20;;;;;;;-2.36;100.00;96684.78;1022818;28;20027;-69
2024/01/22 01:14:55;;;;;;;0.00;0.00;;;;;;;-2.39;100.00;96680.75;1020820;29;20043;-69
2024/01/22 01:15:26;;;;;;;0.65;0.28;;;;;;;-2.35;100.00;96680.44;1023397;29;20445;-71
2024/01/22 01:15:57;;;;;;;0.10;0.10;;;;;;;-2.34;100.00;96676.94;1027162;28;20031;-70
2024/01/22 01:16:28;;;;;;;0.20;0.20;;;;;;;-2.39;100.00;96664.53;1031269;28;20031;-69
2024/01/22 01:16:59;;;;;;;0.00;0.00;;;;;;;-2.32;100.00;96675.78;1031336;28;20081;-70
2024/01/22 01:17:29;;;;;;;0.10;0.10;;;;;;;-2.37;100.00;96663.41;1035228;28;20261;-69
2024/01/22 01:18:00;;;;;;;1.02;0.65;;;;;;;-2.35;100.00;96675.28;1031151;28;20034;-70
2024/01/22 01:18:30;;;;;;;0.28;0.28;;;;;;;-2.31;100.00;96672.28;1028108;28;20023;-71
2024/01/22 01:19:01;;;;;;;0.05;0.05;;;;;;;-2.27;100.00;96668.41;1023302;28;20064;-71
2024/01/22 01:19:31;;;;;;;0.80;0.80;;;;;;;-2.26;100.00;96662.31;1027142;28;20684;-69
2024/01/22 01:20:03;;;;;;;0.20;0.20;;;;;;;-2.30;100.00;96660.22;1026784;29;20079;-70
2024/01/22 01:20:34;;;;;;;0.00;0.00;;;;;;;-2.25;100.00;96663.09;1023457;29;20000;-70
2024/01/22 01:21:05;;;;;;;0.00;0.00;;;;;;;-2.26;100.00;96664.88;1019409;29;20268;-68
2024/01/22 01:21:38;;;;;;;0.10;0.10;;;;;;;-2.29;100.00;96664.38;1019430;28;20249;-68
2024/01/22 01:22:08;;;;;;;0.80;0.70;;;;;;;-2.24;100.00;96673.25;1023527;28;20106;-67
2024/01/22 01:22:39;;;;;;;0.10;0.10;;;;;;;-2.16;100.00;96675.00;1027229;28;20282;-68
2024/01/22 01:23:09;;;;;;;0.00;0.00;;;;;;;-2.14;100.00;96671.31;1030692;28;20152;-67
2024/01/22 01:23:40;;;;;;;0.00;0.00;;;;;;;-2.20;100.00;96664.25;1030723;28;20061;-68
2024/01/22 01:24:10;;;;;;;0.10;0.10;;;;;;;-2.15;100.00;96680.00;1022656;28;20031;-68
2024/01/22 01:24:40;;;;;;;0.70;0.52;;;;;;;-2.18;100.00;96672.59;1023181;29;20031;-68
2024/01/22 01:25:11;;;;;;;0.00;0.00;;;;;;;-2.11;100.00;96677.09;1022767;28;20027;-68
2024/01/22 01:25:42;;;;;;;0.10;0.10;;;;;;;-2.13;100.00;96675.50;1023243;28;20035;-68
2024/01/22 01:26:13;;;;;;;0.45;0.45;;;;;;;-2.09;100.00;96681.13;1030693;28;20057;-67
2024/01/22 01:26:43;;;;;;;0.10;0.10;;;;;;;-2.14;100.00;96668.75;1029833;28;20689;-68
2024/01/22 01:27:16;;;;;;;0.00;0.00;;;;;;;-2.11;100.00;96672.78;1024548;28;20035;-68
2024/01/22 01:27:46;;;;;;;0.00;0.00;;;;;;;-2.15;100.00;96676.59;1023316;28;20031;-68
2024/01/22 01:28:17;;;;;;;0.10;0.10;;;;;;;-2.20;100.00;96671.94;1014765;29;20791;-68
2024/01/22 01:28:47;;;;;;;0.85;0.32;;;;;;;-2.26;100.00;96675.16;1015027;29;20036;-66
2024/01/22 01:29:18;;;;;;;0.10;0.10;;;;;;;-2.24;100.00;96677.59;1014974;29;20024;-68
2024/01/22 01:29:48;;;;;;;0.55;0.55;;;;;;;-2.24;100.00;96675.00;1014797;29;20043;-68
2024/01/22 01:30:19;;;;;;;0.20;0.20;;;;;;;-2.26;100.00;96679.50;1014925;29;20076;-68
2024/01/22 01:30:49;;;;;;;0.00;0.00;;;;;;;-2.24;100.00;96670.66;1022880;28;20639;-67
2024/01/22 01:31:20;;;;;;;2.72;0.45;;;;;;;-2.16;100.00;96675.81;1024385;28;20031;-68
2024/01/22 01:31:50;;;;;;;0.00;0.00;;;;;;;-2.17;100.00;96671.63;1026878;28;20074;-68
2024/01/22 01:32:21;;;;;;;0.85;0.85;;;;;;;-2.13;100.00;96666.97;1025296;28;20085;-68
2024/01/22 01:32:51;;;;;;;0.15;0.10;;;;;;;-2.15;100.00;96672.28;1027015;28;20033;-67
2024/01/22 01:33:22;;;;;;;0.00;0.00;;;;;;;-2.14;100.00;96671.31;1030764;28;20022;-68
2024/01/22 01:33:52;;;;;;;0.00;0.00;;;;;;;-2.17;100.00;96668.25;1027056;28;20027;-70
2024/01/22 01:34:23;;;;;;;0.20;0.20;;;;;;;-2.15;100.00;96664.56;1030147;28;20046;-69
2024/01/22 01:34:53;;;;;;;0.15;0.08;;;;;;;-2.17;100.00;96671.63;1030675;28;20022;-68
2024/01/22 01:35:23;;;;;;;0.00;0.00;;;;;;;-2.10;100.00;96666.66;1030122;28;20035;-67
2024/01/22 01:35:54;;;;;;;0.20;0.20;;;;;;;-2.07;100.00;96663.78;1027153;28;20058;-69
2024/01/22 01:36:25;;;;;;;2.75;0.75;;;;;;;-2.12;100.00;96666.00;1027703;28;20023;-68
2024/01/22 01:36:55;;;;;;;0.10;0.10;;;;;;;-2.05;100.00;96661.03;1023566;28;20126;-70
2024/01/22 01:37:25;;;;;;;0.00;0.00;;;;;;;-2.04;100.00;96662.66;1027004;28;20549;-67
2024/01/22 01:37:56;;;;;;;0.00;0.00;;;;;;;-2.08;100.00;96657.00;1030572;28;20022;-69
2024/01/22 01:38:26;;;;;;;0.38;0.38;;;;;;;-2.07;100.00;96658.63;1030506;28;20026;-68
2024/01/22 01:38:57;;;;;;;0.00;0.00;;;;;;;-2.07;100.00;96657.81;1027033;28;20018;-69
2024/01/22 01:39:27;;;;;;;0.30;0.30;;;;;;;-2.18;100.00;96646.06;1026195;28;20022;-67
2024/01/22 01:39:58;;;;;;;0.00;0.00;;;;;;;-2.13;100.00;96651.56;1019056;29;20020;-68
2024/01/22 01:40:28;;;;;;;0.10;0.10;;;;;;;-2.13;100.00;96654.91;1016405;29;20220;-68
2024/01/22 01:40:59;;;;;;;0.30;0.30;;;;;;;-2.06;100.00;96656.84;1015104;29;20023;-69
2024/01/22 01:41:29;;;;;;;0.10;0.10;;;;;;;-2.10;100.00;96653.81;1019267;28;20055;-67
2024/01/22 01:42:00;;;;;;;0.00;0.00;;;;;;;-2.08;100.00;96656.19;1022813;29;20258;-69
2024/01/22 01:42:30;;;;;;;1.20;1.08;;;;;;;-2.11;100.00;96647.06;1026926;28;20018;-68
2024/01/22 01:43:01;;;;;;;0.08;0.08;;;;;;;-1.97;100.00;96653.34;1030670;28;20022;-69
2024/01/22 01:43:31;;;;;;;0.00;0.00;;;;;;;-1.98;100.00;96649.13;1018894;28;20031;-68
2024/01/22 01:44:02;;;;;;;0.00;0.00;;;;;;;-2.03;100.00;96648.81;1022327;29;20019;-67
2024/01/22 01:44:38;;;;;;;1.05;0.70;;;;;;;-2.00;100.00;96648.50;1018925;29;20710;-68
2024/01/22 01:45:14;;;;;;;0.00;0.00;;;;;;;-1.92;100.00;96657.00;1020468;28;20082;-68
2024/01/22 01:45:44;;;;;;;0.10;0.10;;;;;;;-1.91;100.00;96647.53;1024892;28;20369;-67
2024/01/22 01:46:15;;;;;;;0.00;0.00;;;;;;;-1.81;100.00;96649.94;1027998;28;20275;-68
2024/01/22 01:46:46;;;;;;;0.00;0.00;;;;;;;-1.77;100.00;96644.31;1024642;28;20099;-67
2024/01/22 01:47:17;;;;;;;0.00;0.00;;;;;;;-1.81;100.00;96643.03;1020523;29;20306;-69
2024/01/22 01:47:47;;;;;;;0.20;0.20;;;;;;;-1.84;100.00;96638.22;1028201;28;20052;-67
2024/01/22 01:48:18;;;;;;;0.10;0.10;;;;;;;-1.75;100.00;96647.50;1019976;29;20690;-64
2024/01/22 01:48:49;;;;;;;0.00;0.00;;;;;;;-1.77;100.00;96644.31;1022537;29;20031;-68
2024/01/22 01:49:19;;;;;;;0.30;0.30;;;;;;;-1.71;100.00;96651.38;1018914;29;20099;-68
2024/01/22 01:49:50;;;;;;;0.10;0.10;;;;;;;-1.60;100.00;96652.00;1018795;29;20273;-67
2024/01/22 01:50:20;;;;;;;0.00;0.00;;;;;;;-1.57;100.00;96651.69;1020352;29;20023;-69
2024/01/22 01:50:51;;;;;;;0.30;0.30;;;;;;;-1.55;100.00;96647.97;1022210;29;20199;-68
2024/01/22 01:51:21;;;;;;;0.00;0.00;;;;;;;-1.56;100.00;96641.22;1014780;28;20031;-68
2024/01/22 01:51:52;;;;;;;0.08;0.08;;;;;;;-1.58;100.00;96647.47;1018714;29;20016;-67
2024/01/22 01:52:22;;;;;;;4.90;0.40;;;;;;;-1.56;100.00;96641.22;1025003;28;20038;-69
2024/01/22 01:52:53;;;;;;;0.22;0.22;;;;;;;-1.55;100.00;96636.88;1022861;29;20098;-68
2024/01/22 01:53:24;;;;;;;0.57;0.57;;;;;;;-1.53;100.00;96640.09;1018875;29;20031;-68
2024/01/22 01:53:54;;;;;;;0.00;0.00;;;;;;;-1.45;100.00;96643.44;1026586;28;20041;-68
2024/01/22 01:54:25;;;;;;;0.70;0.70;;;;;;;-1.51;100.00;96638.97;1026826;28;20354;-68
2024/01/22 01:54:55;;;;;;;0.10;0.10;;;;;;;-1.44;100.00;96639.13;1026750;28;20121;-68
2024/01/22 01:55:26;;;;;;;0.00;0.00;;;;;;;-1.47;100.00;96639.44;1019214;29;20023;-68
2024/01/22 01:55:57;;;;;;;0.00;0.00;;;;;;;-1.52;100.00;96641.69;1025923;28;20133;-69
2024/01/22 01:56:27;;;;;;;0.00;0.00;;;;;;;-1.55;100.00;96642.00;1018116;29;20488;-67
2024/01/22 01:56:58;;;;;;;0.00;0.00;;;;;;;-1.57;100.00;96641.41;1014792;29;20272;-68
2024/01/22 01:57:28;;;;;;;0.00;0.00;;;;;;;-1.56;100.00;96635.28;1022581;28;20573;-67
2024/01/22 01:57:59;;;;;;;0.00;0.00;;;;;;;-1.55;100.00;96637.66;1018604;29;20043;-67
2024/01/22 01:58:29;;;;;;;0.05;0.05;;;;;;;-1.59;100.00;96635.59;1022141;28;20027;-67
2024/01/22 01:59:00;;;;;;;0.00;0.00;;;;;;;-1.56;100.00;96635.28;1022901;29;20039;-68
2024/01/22 01:59:31;;;;;;;0.00;0.00;;;;;;;-1.58;100.00;96627.69;1018754;28;20028;-68
2024/01/22 02:00:04;;;;;;;0.00;0.00;;;;;;;-1.60;100.00;96636.56;1018503;29;20035;-70
2024/01/22 02:00:34;;;;;;;0.00;0.00;;;;;;;-1.67;100.00;96629.50;1018769;29;20038;-69
2024/01/22 02:01:05;;;;;;;0.47;0.30;;;;;;;-1.75;100.00;96616.63;1022737;28;20270;-67
2024/01/22 02:01:36;;;;;;;0.00;0.00;;;;;;;-1.72;100.00;96634.31;1027450;28;20035;-68
2024/01/22 02:02:06;;;;;;;2.53;0.40;;;;;;;-1.78;100.00;96622.09;1026771;28;20511;-68
2024/01/22 02:02:38;;;;;;;0.00;0.00;;;;;;;-1.78;100.00;96626.44;1026650;28;20049;-70
2024/01/22 02:03:09;;;;;;;2.47;0.45;;;;;;;-1.79;100.00;96630.78;1015241;29;20032;-68
2024/01/22 02:03:40;;;;;;;0.40;0.30;;;;;;;-1.78;100.00;96629.03;1019073;29;20632;-68
2024/01/22 02:04:10;;;;;;;0.20;0.13;;;;;;;-1.78;100.00;96626.44;1018984;29;20303;-71
2024/01/22 02:04:41;;;;;;;0.10;0.10;;;;;;;-1.83;100.00;96629.53;1026703;28;20545;-67
2024/01/22 02:05:13;;;;;;;0.00;0.00;;;;;;;-1.85;100.00;96621.16;1020815;28;20233;-68
2024/01/22 02:05:44;;;;;;;0.00;0.00;;;;;;;-1.88;100.00;96618.91;1023163;29;20027;-68
2024/01/22 02:06:15;;;;;;;0.45;0.45;;;;;;;-1.93;100.00;96613.47;1022580;29;20267;-69
2024/01/22 02:06:45;;;;;;;0.00;0.00;;;;;;;-1.92;100.00;96615.06;1018911;29;20284;-68
2024/01/22 02:07:16;;;;;;;0.00;0.00;;;;;;;-1.91;100.00;96614.91;1016936;29;20475;-68
2024/01/22 02:07:46;;;;;;;0.00;0.00;;;;;;;-1.97;100.00;96619.91;1014926;29;20051;-68
2024/01/22 02:08:17;;;;;;;0.00;0.00;;;;;;;-2.04;100.00;96606.88;1014097;29;20028;-69
2024/01/22 02:08:51;;;;;;;0.00;0.00;;;;;;;-2.05;100.00;96607.03;1014484;29;20075;-65
2024/01/22 02:09:21;;;;;;;0.00;0.00;;;;;;;-1.97;100.00;96622.47;1021434;29;20118;-68
2024/01/22 02:09:53;;;;;;;0.13;0.13;;;;;;;-1.93;100.00;96616.03;1016061;29;20282;-68
2024/01/22 02:10:24;;;;;;;0.17;0.17;;;;;;;-1.94;100.00;96609.28;1017937;29;20031;-69
2024/01/22 02:10:54;;;;;;;0.03;0.03;;;;;;;-1.95;100.00;96612.81;1018788;29;20676;-69
2024/01/22 02:11:25;;;;;;;0.00;0.00;;;;;;;-1.96;100.00;96608.63;1019028;29;20055;-68
2024/01/22 02:11:55;;;;;;;0.00;0.00;;;;;;;-2.00;100.00;96608.16;1022815;28;20027;-68
2024/01/22 02:12:26;;;;;;;0.00;0.00;;;;;;;-2.03;100.00;96603.34;1026937;28;20054;-68
2024/01/22 02:12:56;;;;;;;0.03;0.03;;;;;;;-2.03;100.00;96608.47;1018967;29;20031;-68
2024/01/22 02:13:28;;;;;;;0.00;0.00;;;;;;;-2.14;100.00;96591.63;1019620;28;20035;-65
2024/01/22 02:13:58;;;;;;;0.00;0.00;;;;;;;-2.03;100.00;96600.78;1022912;29;20049;-68
2024/01/22 02:14:29;;;;;;;0.00;0.00;;;;;;;-2.09;100.00;96598.84;1018966;28;20271;-67
2024/01/22 02:14:59;;;;;;;0.00;0.00;;;;;;;-2.12;100.00;96596.59;1022945;28;20035;-68
2024/01/22 02:15:30;;;;;;;0.00;0.00;;;;;;;-2.15;100.00;96594.34;1027747;28;20037;-68
2024/01/22 02:16:00;;;;;;;0.25;0.10;;;;;;;-2.17;100.00;96594.50;1026827;28;20031;-68
2024/01/22 02:16:31;;;;;;;0.60;0.40;;;;;;;-2.10;100.00;96588.72;1031957;28;20027;-69
2024/01/22 02:17:01;;;;;;;0.00;0.00;;;;;;;-2.09;100.00;96595.47;1023552;28;20031;-69
2024/01/22 02:17:32;;;;;;;0.40;0.40;;;;;;;-2.10;100.00;96597.25;1025905;28;20019;-67
2024/01/22 02:18:03;;;;;;;0.32;0.32;;;;;;;-2.10;100.00;96601.59;1021491;29;20138;-69
2024/01/22 02:18:33;;;;;;;0.00;0.00;;;;;;;-2.11;100.00;96590.50;1016662;29;20028;-68
2024/01/22 02:19:03;;;;;;;0.00;0.00;;;;;;;-2.15;100.00;96590.03;1021220;29;20031;-68
2024/01/22 02:19:34;;;;;;;0.00;0.00;;;;;;;-2.14;100.00;96588.25;1021314;28;20590;-71
2024/01/22 02:20:05;;;;;;;0.30;0.30;;;;;;;-2.12;100.00;96578.59;1020277;29;20034;-68
2024/01/22 02:20:36;;;;;;;0.32;0.32;;;;;;;-2.08;100.00;96592.72;1024726;28;20019;-69
2024/01/22 02:21:07;;;;;;;0.00;0.00;;;;;;;-2.06;100.00;96588.22;1020907;28;20272;-68
2024/01/22 02:21:37;;;;;;;0.08;0.08;;;;;;;-2.07;100.00;96588.41;1025864;28;20039;-68
2024/01/22 02:22:08;;;;;;;0.00;0.00;;;;;;;-2.06;100.00;96583.09;1032864;28;20331;-67
2024/01/22 02:22:38;;;;;;;0.00;0.00;;;;;;;-1.94;100.00;96581.81;1023198;28;20027;-65